Time;durP1;ratioP1;P1;durP2;ratioP2;P2;SDS_P1;SDS_P2;PMS_P1;PMS_P2;Temp;Humidity;BMP_temperature;BMP_pressure;BME280_temperature;BME280_humidity;BME280_pressure;Samples;Min_cycle;Max_cycle;Signal;HPM_P1;HPM_P2
2023/09/05 00:01:40;;;;;;;2.03;1.60;;;25.30;54.40;;;;;;5020462;28;20021;-64
2023/09/05 00:04:05;;;;;;;2.00;1.40;;;25.20;54.30;;;;;;5019403;28;20037;-64
2023/09/05 00:06:31;;;;;;;2.05;1.48;;;25.30;54.40;;;;;;5019057;28;20040;-65
2023/09/05 00:08:56;;;;;;;2.00;1.50;;;25.20;54.30;;;;;;5020128;28;20097;-66
2023/09/05 00:11:22;;;;;;;1.92;1.40;;;25.20;54.40;;;;;;5021658;28;20022;-67
2023/09/05 00:13:48;;;;;;;1.67;1.27;;;25.20;54.40;;;;;;5021219;28;20358;-65
2023/09/05 00:16:13;;;;;;;1.98;1.50;;;25.20;54.30;;;;;;5018175;28;20033;-65
2023/09/05 00:18:39;;;;;;;2.00;1.40;;;25.20;54.30;;;;;;5020904;28;20033;-65
2023/09/05 00:21:07;;;;;;;2.22;1.42;;;25.20;54.40;;;;;;5021611;28;20469;-64
2023/09/05 00:23:33;;;;;;;1.80;1.40;;;25.20;54.30;;;;;;5020494;28;20500;-65
2023/09/05 00:25:58;;;;;;;1.88;1.50;;;25.20;54.40;;;;;;5018741;28;20061;-60
2023/09/05 00:28:24;;;;;;;2.00;1.30;;;25.10;54.30;;;;;;5017844;28;20489;-60
2023/09/05 00:30:50;;;;;;;2.15;1.50;;;25.20;54.40;;;;;;5019160;28;20029;-59
2023/09/05 00:33:16;;;;;;;2.35;1.50;;;25.10;54.30;;;;;;5019351;28;20098;-60
2023/09/05 00:35:42;;;;;;;3.13;1.85;;;25.10;54.30;;;;;;5021314;28;20033;-65
2023/09/05 00:38:07;;;;;;;2.22;1.40;;;25.10;54.40;;;;;;5019574;28;20038;-65
2023/09/05 00:40:33;;;;;;;1.90;1.30;;;25.10;54.40;;;;;;5019778;28;20052;-65
2023/09/05 00:42:59;;;;;;;2.40;1.60;;;25.10;54.40;;;;;;5021748;28;20037;-64
2023/09/05 00:45:24;;;;;;;2.40;1.60;;;25.10;54.40;;;;;;5020580;28;20105;-65
2023/09/05 00:47:50;;;;;;;2.08;1.52;;;25.10;54.40;;;;;;5020016;28;20096;-65
2023/09/05 00:50:18;;;;;;;2.10;1.50;;;25.10;54.40;;;;;;5021140;28;20040;-65
2023/09/05 00:52:44;;;;;;;2.20;1.60;;;25.10;54.40;;;;;;5020718;28;20032;-65
2023/09/05 00:55:11;;;;;;;2.28;1.50;;;25.10;54.40;;;;;;5021268;28;20021;-65
2023/09/05 00:57:38;;;;;;;2.35;1.60;;;25.00;54.40;;;;;;5020166;28;20084;-64
2023/09/05 01:00:08;;;;;;;2.33;1.67;;;25.00;54.40;;;;;;5019170;28;20037;-65
2023/09/05 01:02:35;;;;;;;2.00;1.50;;;25.10;55.00;;;;;;5019481;28;20034;-64
2023/09/05 01:05:02;;;;;;;2.30;1.55;;;25.00;54.40;;;;;;5021101;28;20033;-66
2023/09/05 01:07:40;;;;;;;2.20;1.40;;;25.00;54.40;;;;;;5019459;28;20109;-65
2023/09/05 01:10:11;;;;;;;2.22;1.50;;;25.00;54.40;;;;;;5021115;28;20067;-65
2023/09/05 01:12:37;;;;;;;2.08;1.40;;;25.00;54.50;;;;;;5018917;28;20366;-64
2023/09/05 01:15:04;;;;;;;2.10;1.40;;;25.00;54.50;;;;;;5019761;28;20026;-65
2023/09/05 01:17:29;;;;;;;2.10;1.50;;;25.00;54.50;;;;;;5017684;28;20103;-64
2023/09/05 01:20:00;;;;;;;2.20;1.60;;;25.00;54.50;;;;;;5019328;28;20029;-65
2023/09/05 01:23:00;;;;;;;2.20;1.48;;;24.90;54.50;;;;;;5022558;28;20033;-66
2023/09/05 01:25:27;;;;;;;2.13;1.52;;;24.90;54.50;;;;;;5019698;28;20029;-64
2023/09/05 01:27:53;;;;;;;1.95;1.48;;;24.90;54.50;;;;;;5019209;28;20021;-65
2023/09/05 01:30:20;;;;;;;1.98;1.50;;;24.90;54.50;;;;;;5021807;28;20109;-64
2023/09/05 01:32:46;;;;;;;2.60;1.70;;;24.90;54.50;;;;;;5020302;28;20029;-65
2023/09/05 01:35:12;;;;;;;1.90;1.38;;;24.90;54.50;;;;;;5018222;28;20061;-65
2023/09/05 01:37:37;;;;;;;2.97;1.80;;;24.90;54.50;;;;;;5017246;28;20061;-65
2023/09/05 01:40:04;;;;;;;2.08;1.48;;;24.90;54.50;;;;;;5019509;28;20428;-64
2023/09/05 01:42:29;;;;;;;1.73;1.40;;;24.90;54.50;;;;;;5018380;28;20095;-64
2023/09/05 01:44:55;;;;;;;2.20;1.50;;;24.80;54.50;;;;;;5026447;28;20030;-64
2023/09/05 01:47:20;;;;;;;1.83;1.30;;;24.80;54.50;;;;;;5018414;28;20129;-65
2023/09/05 01:49:46;;;;;;;2.17;1.50;;;24.80;54.50;;;;;;5019257;28;20363;-64
2023/09/05 01:52:12;;;;;;;2.05;1.50;;;24.80;54.50;;;;;;5018722;28;20033;-64
2023/09/05 01:54:40;;;;;;;2.28;1.60;;;24.80;54.50;;;;;;5018858;28;20485;-65
2023/09/05 01:57:06;;;;;;;2.03;1.40;;;24.80;54.50;;;;;;5018558;28;20033;-65
2023/09/05 01:59:32;;;;;;;1.73;1.30;;;24.80;54.50;;;;;;5018834;28;20032;-65
2023/09/05 02:01:57;;;;;;;1.70;1.25;;;24.80;54.50;;;;;;5016693;28;20037;-65
2023/09/05 02:04:23;;;;;;;1.75;1.35;;;24.80;54.50;;;;;;5018867;28;20030;-65
2023/09/05 02:06:49;;;;;;;1.77;1.38;;;24.80;54.60;;;;;;5018026;28;20105;-65
2023/09/05 02:09:14;;;;;;;1.90;1.40;;;24.80;54.60;;;;;;5019083;28;20104;-65
2023/09/05 02:11:40;;;;;;;2.05;1.50;;;24.80;54.60;;;;;;5020599;28;20778;-65
2023/09/05 02:14:05;;;;;;;1.90;1.35;;;24.80;54.60;;;;;;5018590;28;20034;-64
2023/09/05 02:16:33;;;;;;;1.75;1.40;;;24.80;54.60;;;;;;5020163;28;20527;-62
2023/09/05 02:18:58;;;;;;;1.95;1.40;;;24.80;54.60;;;;;;5017921;28;20018;-60
2023/09/05 02:21:24;;;;;;;2.10;1.40;;;24.80;54.60;;;;;;5020837;28;20041;-61
2023/09/05 02:23:50;;;;;;;1.98;1.42;;;24.70;54.60;;;;;;5020933;28;20032;-62
2023/09/05 02:26:15;;;;;;;1.85;1.50;;;24.70;54.60;;;;;;5018692;28;20461;-61
2023/09/05 02:28:41;;;;;;;2.10;1.60;;;24.70;54.60;;;;;;5019322;28;20159;-62
2023/09/05 02:31:07;;;;;;;1.70;1.40;;;24.70;54.60;;;;;;5017906;28;20097;-61
2023/09/05 02:33:36;;;;;;;1.70;1.40;;;24.70;54.60;;;;;;5018713;28;20132;-61
2023/09/05 02:36:18;;;;;;;2.05;1.50;;;24.70;54.60;;;;;;5018598;28;20021;-61
2023/09/05 02:38:45;;;;;;;1.77;1.38;;;24.70;54.60;;;;;;5018448;28;20048;-61
2023/09/05 02:41:14;;;;;;;1.75;1.35;;;24.70;54.60;;;;;;5024361;28;20036;-61
2023/09/05 02:43:40;;;;;;;2.22;1.42;;;24.70;54.60;;;;;;5021911;28;20018;-62
2023/09/05 02:46:06;;;;;;;2.00;1.50;;;24.70;54.60;;;;;;5022939;28;20115;-61
2023/09/05 02:48:32;;;;;;;2.08;1.50;;;24.70;54.60;;;;;;5020601;28;20116;-62
2023/09/05 02:51:06;;;;;;;2.05;1.50;;;24.70;54.70;;;;;;5021621;28;20678;-61
2023/09/05 02:53:33;;;;;;;2.08;1.50;;;24.70;54.70;;;;;;5022379;28;20021;-61
2023/09/05 02:55:58;;;;;;;2.35;1.70;;;24.70;54.70;;;;;;5020221;28;20083;-65
2023/09/05 02:58:28;;;;;;;2.10;1.50;;;24.60;54.60;;;;;;5036417;28;20049;-65
2023/09/05 03:01:04;;;;;;;2.07;1.50;;;24.60;54.60;;;;;;5022684;28;20481;-64
2023/09/05 03:03:30;;;;;;;1.88;1.40;;;24.60;54.60;;;;;;5021457;28;20736;-64
2023/09/05 03:05:56;;;;;;;2.03;1.42;;;24.60;54.70;;;;;;5023833;28;20422;-64
2023/09/05 03:08:22;;;;;;;1.75;1.27;;;24.60;54.60;;;;;;5021946;28;20430;-65
2023/09/05 03:10:52;;;;;;;1.50;1.30;;;24.60;54.70;;;;;;5021443;28;20044;-65
2023/09/05 03:13:19;;;;;;;2.05;1.45;;;24.60;54.60;;;;;;5020198;28;20497;-65
2023/09/05 03:15:44;;;;;;;2.00;1.45;;;24.60;54.60;;;;;;5022319;28;20374;-64
2023/09/05 03:18:10;;;;;;;1.77;1.27;;;24.60;54.60;;;;;;5021549;28;20036;-65
2023/09/05 03:20:36;;;;;;;2.45;1.40;;;24.60;54.60;;;;;;5022660;28;20040;-65
2023/09/05 03:23:01;;;;;;;1.65;1.30;;;24.60;54.60;;;;;;5021816;28;20740;-64
2023/09/05 03:25:27;;;;;;;1.67;1.30;;;24.60;54.70;;;;;;5022037;28;20516;-66
2023/09/05 03:27:52;;;;;;;1.92;1.50;;;24.60;54.60;;;;;;5021797;28;20029;-61
2023/09/05 03:30:18;;;;;;;2.30;1.42;;;24.60;54.70;;;;;;5020452;28;20065;-60
2023/09/05 03:32:44;;;;;;;1.90;1.35;;;24.60;54.70;;;;;;5019708;28;20425;-59
2023/09/05 03:35:10;;;;;;;1.90;1.35;;;24.50;54.70;;;;;;5019953;28;20103;-60
2023/09/05 03:37:35;;;;;;;2.08;1.50;;;24.50;54.60;;;;;;5021145;28;20041;-59
2023/09/05 03:40:01;;;;;;;1.70;1.40;;;24.50;54.70;;;;;;5021213;28;20017;-60
2023/09/05 03:42:27;;;;;;;1.75;1.30;;;24.50;54.70;;;;;;5020128;28;20037;-60
2023/09/05 03:44:52;;;;;;;1.77;1.30;;;24.60;54.70;;;;;;5022899;28;20073;-60
2023/09/05 03:47:18;;;;;;;1.92;1.40;;;24.50;54.70;;;;;;5019985;28;20044;-60
2023/09/05 03:49:43;;;;;;;2.40;1.50;;;24.50;54.60;;;;;;5019495;28;20030;-60
2023/09/05 03:52:09;;;;;;;1.98;1.35;;;24.50;54.60;;;;;;5020645;28;20033;-60
2023/09/05 03:54:34;;;;;;;1.70;1.30;;;24.50;54.60;;;;;;5023040;28;20033;-61
2023/09/05 03:57:00;;;;;;;2.38;1.40;;;24.50;54.60;;;;;;5021020;28;20026;-59
2023/09/05 03:59:31;;;;;;;1.90;1.35;;;24.50;54.70;;;;;;5017968;28;20338;-59
2023/09/05 04:01:57;;;;;;;2.05;1.50;;;24.50;54.70;;;;;;5022299;28;20033;-61
2023/09/05 04:04:22;;;;;;;2.10;1.40;;;24.50;54.70;;;;;;5019149;28;20468;-62
2023/09/05 04:06:48;;;;;;;1.85;1.35;;;24.50;54.70;;;;;;5022987;28;20326;-67
2023/09/05 04:09:14;;;;;;;1.70;1.40;;;24.50;54.70;;;;;;5022167;28;20029;-68
2023/09/05 04:11:39;;;;;;;1.70;1.30;;;24.50;54.70;;;;;;5020533;28;20536;-68
2023/09/05 04:14:05;;;;;;;2.38;1.50;;;24.50;54.70;;;;;;5019754;28;20062;-68
2023/09/05 04:16:31;;;;;;;1.85;1.30;;;24.50;54.70;;;;;;5021721;28;20068;-66
2023/09/05 04:18:56;;;;;;;2.08;1.42;;;24.50;54.70;;;;;;5019844;28;20038;-66
2023/09/05 04:21:22;;;;;;;2.05;1.25;;;24.50;54.70;;;;;;5033266;28;20456;-66
2023/09/05 04:23:47;;;;;;;2.60;1.50;;;24.50;54.70;;;;;;5018814;28;20048;-66
2023/09/05 04:26:14;;;;;;;1.80;1.25;;;24.50;54.70;;;;;;5020554;28;20022;-66
2023/09/05 04:28:40;;;;;;;1.80;1.35;;;24.50;54.70;;;;;;5021305;28;20055;-64
2023/09/05 04:31:06;;;;;;;2.00;1.23;;;24.50;54.70;;;;;;5020302;28;20034;-64
2023/09/05 04:33:37;;;;;;;1.80;1.30;;;24.40;54.60;;;;;;5018806;28;20026;-65
2023/09/05 04:36:06;;;;;;;1.85;1.30;;;24.50;55.20;;;;;;5021133;28;20018;-65
2023/09/05 04:38:31;;;;;;;2.03;1.45;;;24.40;54.60;;;;;;5018969;28;20551;-65
2023/09/05 04:41:01;;;;;;;1.85;1.40;;;24.40;54.60;;;;;;5020886;28;20029;-66
2023/09/05 04:43:26;;;;;;;;;;;24.40;54.60;;;;;;5019223;28;20189;-65
2023/09/05 04:45:56;;;;;;;1.35;1.10;;;24.40;54.60;;;;;;5019799;28;19936;-64
2023/09/05 04:48:22;;;;;;;1.88;1.40;;;24.40;54.60;;;;;;5019841;28;20028;-64
2023/09/05 04:50:48;;;;;;;1.80;1.40;;;24.40;54.60;;;;;;5020290;28;20034;-65
2023/09/05 04:53:13;;;;;;;1.58;1.10;;;24.40;54.60;;;;;;5022382;28;20530;-63
2023/09/05 04:55:42;;;;;;;2.25;1.40;;;24.40;54.70;;;;;;5021590;28;20087;-64
2023/09/05 04:58:08;;;;;;;1.75;1.23;;;24.40;54.60;;;;;;5015422;28;20075;-64
2023/09/05 05:00:34;;;;;;;1.95;1.38;;;24.40;54.70;;;;;;5021369;28;20123;-65
2023/09/05 05:03:00;;;;;;;1.80;1.30;;;24.40;54.60;;;;;;5020469;28;20033;-64
2023/09/05 05:05:25;;;;;;;1.80;1.30;;;24.40;54.70;;;;;;5019369;28;20104;-66
2023/09/05 05:07:51;;;;;;;1.65;1.27;;;24.40;54.70;;;;;;5022102;28;20030;-66
2023/09/05 05:10:17;;;;;;;1.88;1.38;;;24.40;54.70;;;;;;5019163;28;20033;-66
2023/09/05 05:12:42;;;;;;;2.00;1.50;;;24.30;55.10;;;;;;5021391;28;20026;-66
2023/09/05 05:15:09;;;;;;;1.90;1.30;;;24.40;54.60;;;;;;5019339;28;20024;-66
2023/09/05 05:17:35;;;;;;;1.50;1.20;;;24.40;54.60;;;;;;5020348;28;20525;-66
2023/09/05 05:20:01;;;;;;;1.98;1.38;;;24.40;54.70;;;;;;5018824;28;20422;-66
2023/09/05 05:22:26;;;;;;;2.13;1.40;;;24.30;54.60;;;;;;5018435;28;20144;-66
2023/09/05 05:24:52;;;;;;;2.08;1.38;;;24.30;55.10;;;;;;5020319;28;20056;-67
2023/09/05 05:27:18;;;;;;;1.73;1.33;;;24.30;54.60;;;;;;5018722;28;20052;-66
2023/09/05 05:29:44;;;;;;;1.70;1.30;;;24.30;54.60;;;;;;5017976;28;20025;-66
2023/09/05 05:32:09;;;;;;;1.75;1.30;;;24.30;54.60;;;;;;5021744;28;20057;-66
2023/09/05 05:34:35;;;;;;;1.67;1.27;;;24.30;54.50;;;;;;5019817;28;20033;-65
2023/09/05 05:37:01;;;;;;;1.70;1.20;;;24.30;54.60;;;;;;5020777;28;20048;-65
2023/09/05 05:39:27;;;;;;;2.10;1.40;;;24.30;54.60;;;;;;5020378;28;20029;-66
2023/09/05 05:41:52;;;;;;;2.03;1.45;;;24.30;54.60;;;;;;5020195;28;20115;-65
2023/09/05 05:44:18;;;;;;;1.90;1.40;;;24.30;54.60;;;;;;5022041;28;20095;-66
2023/09/05 05:46:44;;;;;;;1.42;1.10;;;24.30;54.60;;;;;;5019609;28;20030;-69
2023/09/05 05:49:09;;;;;;;1.80;1.30;;;24.30;54.60;;;;;;5019144;28;20489;-68
2023/09/05 05:51:36;;;;;;;1.45;1.17;;;24.30;54.60;;;;;;5034391;28;20068;-69
2023/09/05 05:54:02;;;;;;;1.80;1.30;;;24.30;54.60;;;;;;5020026;28;20045;-66
2023/09/05 05:56:27;;;;;;;1.90;1.33;;;24.30;54.60;;;;;;5016497;28;20038;-68
2023/09/05 05:58:53;;;;;;;1.88;1.30;;;24.30;54.60;;;;;;5018945;28;20044;-69
2023/09/05 06:01:19;;;;;;;1.88;1.40;;;24.20;54.50;;;;;;5017730;28;20040;-69
2023/09/05 06:03:45;;;;;;;1.83;1.27;;;24.30;54.60;;;;;;5020300;28;20034;-69
2023/09/05 06:06:11;;;;;;;2.05;1.30;;;24.30;54.60;;;;;;5017933;28;20024;-68
2023/09/05 06:08:37;;;;;;;2.20;1.38;;;24.30;54.60;;;;;;5019859;28;20656;-68
2023/09/05 06:11:02;;;;;;;1.85;1.30;;;24.30;54.50;;;;;;5018518;28;20437;-67
2023/09/05 06:13:28;;;;;;;1.92;1.23;;;24.30;54.60;;;;;;5019689;28;20113;-68
2023/09/05 06:15:54;;;;;;;1.90;1.30;;;24.20;54.50;;;;;;5021346;28;20547;-68
2023/09/05 06:18:19;;;;;;;1.83;1.20;;;24.30;54.50;;;;;;5023821;28;20037;-68
2023/09/05 06:20:45;;;;;;;1.70;1.30;;;24.20;54.50;;;;;;5023439;28;20034;-68
2023/09/05 06:23:11;;;;;;;1.70;1.25;;;24.20;54.50;;;;;;5023770;28;20515;-67
2023/09/05 06:25:36;;;;;;;1.77;1.23;;;24.20;54.50;;;;;;5022454;28;20110;-68
2023/09/05 06:28:02;;;;;;;2.15;1.30;;;24.20;54.50;;;;;;5023903;28;20034;-68
2023/09/05 06:30:28;;;;;;;1.83;1.27;;;24.20;54.50;;;;;;5023237;28;20033;-68
2023/09/05 06:32:53;;;;;;;2.10;1.40;;;24.20;54.50;;;;;;5021066;28;20038;-68
2023/09/05 06:35:19;;;;;;;2.08;1.30;;;24.20;54.50;;;;;;5023058;28;20036;-66
2023/09/05 06:37:45;;;;;;;1.90;1.30;;;24.20;54.50;;;;;;5023647;28;20501;-65
2023/09/05 06:40:15;;;;;;;1.77;1.20;;;24.20;54.50;;;;;;5023542;28;20080;-65
2023/09/05 06:42:41;;;;;;;1.38;1.17;;;24.20;54.50;;;;;;5021360;28;20054;-65
2023/09/05 06:45:08;;;;;;;2.10;1.30;;;24.20;54.50;;;;;;5021667;28;20080;-65
2023/09/05 06:47:34;;;;;;;1.80;1.30;;;24.20;54.50;;;;;;5023270;28;20489;-65
2023/09/05 06:50:00;;;;;;;1.60;1.20;;;24.20;54.50;;;;;;5020227;28;20021;-65
2023/09/05 06:52:26;;;;;;;1.80;1.30;;;24.20;54.50;;;;;;5021671;28;20056;-65
2023/09/05 06:54:52;;;;;;;1.92;1.30;;;24.20;54.50;;;;;;5021943;28;20061;-65
2023/09/05 06:57:18;;;;;;;1.85;1.30;;;24.20;54.50;;;;;;5020808;28;20033;-65
2023/09/05 06:59:44;;;;;;;1.30;1.10;;;24.20;54.40;;;;;;5020206;28;20511;-66
2023/09/05 07:02:09;;;;;;;1.80;1.30;;;24.20;54.40;;;;;;5023863;28;20060;-66
2023/09/05 07:04:36;;;;;;;1.27;1.00;;;24.20;54.40;;;;;;5023355;28;20507;-66
2023/09/05 07:07:03;;;;;;;1.70;1.20;;;24.20;54.40;;;;;;5019677;28;20386;-66
2023/09/05 07:09:29;;;;;;;1.65;1.25;;;24.10;54.30;;;;;;5022384;28;20026;-65
2023/09/05 07:11:55;;;;;;;1.48;1.17;;;24.10;54.30;;;;;;5022042;28;20022;-66
2023/09/05 07:14:21;;;;;;;1.77;1.25;;;24.10;54.30;;;;;;5021931;28;20136;-65
2023/09/05 07:16:46;;;;;;;1.70;1.27;;;24.10;54.30;;;;;;5021382;28;20309;-66
2023/09/05 07:19:12;;;;;;;1.83;1.30;;;24.10;54.30;;;;;;5019327;28;20030;-66
2023/09/05 07:21:40;;;;;;;2.00;1.38;;;24.10;54.30;;;;;;5022807;28;20032;-65
2023/09/05 07:24:07;;;;;;;1.70;1.30;;;24.10;54.30;;;;;;5021218;28;20547;-67
2023/09/05 07:26:33;;;;;;;1.70;1.30;;;24.10;54.30;;;;;;5021523;28;20028;-66
2023/09/05 07:28:59;;;;;;;1.92;1.48;;;24.10;54.30;;;;;;5021314;28;20384;-66
2023/09/05 07:31:30;;;;;;;2.05;1.40;;;24.10;54.30;;;;;;5021165;28;20026;-66
2023/09/05 07:33:55;;;;;;;1.65;1.20;;;24.10;54.30;;;;;;5022039;28;20100;-66
2023/09/05 07:36:21;;;;;;;1.60;1.23;;;24.10;54.30;;;;;;5023021;28;20148;-66
2023/09/05 07:38:47;;;;;;;1.52;1.27;;;24.10;54.30;;;;;;5020814;28;20389;-65
2023/09/05 07:41:12;;;;;;;1.98;1.30;;;24.10;54.30;;;;;;5020330;28;20109;-65
2023/09/05 07:43:38;;;;;;;1.90;1.20;;;24.10;54.30;;;;;;5019980;28;20089;-66
2023/09/05 07:46:03;;;;;;;2.28;1.40;;;24.10;54.30;;;;;;5021832;28;20037;-62
2023/09/05 07:48:29;;;;;;;1.98;1.30;;;24.10;54.30;;;;;;5017841;28;20116;-63
2023/09/05 07:51:03;;;;;;;2.35;1.40;;;24.10;54.40;;;;;;5020670;28;20520;-61
2023/09/05 07:53:30;;;;;;;2.42;1.17;;;24.10;54.30;;;;;;5019360;28;20025;-63
2023/09/05 07:55:56;;;;;;;2.00;1.30;;;24.10;54.40;;;;;;5020574;28;20026;-61
2023/09/05 07:58:22;;;;;;;1.67;1.10;;;24.10;54.90;;;;;;5021203;28;20030;-62
2023/09/05 08:00:48;;;;;;;1.80;1.17;;;24.00;54.30;;;;;;5020261;28;20029;-61
2023/09/05 08:03:13;;;;;;;1.90;1.30;;;24.10;54.40;;;;;;5020524;28;20040;-62
2023/09/05 08:05:39;;;;;;;1.90;1.30;;;24.10;54.40;;;;;;5020424;28;20076;-63
2023/09/05 08:08:05;;;;;;;1.98;1.40;;;24.10;54.40;;;;;;5022280;28;20037;-62
2023/09/05 08:10:31;;;;;;;1.70;1.23;;;24.10;54.40;;;;;;5020675;28;20497;-60
2023/09/05 08:12:56;;;;;;;1.67;1.20;;;24.10;54.50;;;;;;5020658;28;20029;-62
2023/09/05 08:15:22;;;;;;;1.63;1.20;;;24.10;54.50;;;;;;5022125;28;20025;-61
2023/09/05 08:17:48;;;;;;;1.98;1.30;;;24.10;54.50;;;;;;5020931;28;20029;-62
2023/09/05 08:20:13;;;;;;;1.85;1.27;;;24.00;54.40;;;;;;5020555;28;20033;-61
2023/09/05 08:22:39;;;;;;;1.73;1.30;;;24.00;54.40;;;;;;5021287;28;20044;-62
2023/09/05 08:25:09;;;;;;;1.95;1.38;;;24.00;54.40;;;;;;5020889;28;20493;-61
2023/09/05 08:27:35;;;;;;;2.10;1.52;;;24.00;54.40;;;;;;5019116;28;20142;-60
2023/09/05 08:30:11;;;;;;;1.85;1.30;;;24.00;54.40;;;;;;5021545;28;20482;-62
2023/09/05 08:32:38;;;;;;;1.45;1.10;;;24.00;54.40;;;;;;5021359;28;20513;-61
2023/09/05 08:35:09;;;;;;;2.00;1.33;;;24.00;54.40;;;;;;5020328;28;20033;-63
2023/09/05 08:37:35;;;;;;;2.00;1.40;;;24.00;54.40;;;;;;5018221;28;20029;-61
2023/09/05 08:40:03;;;;;;;2.17;1.30;;;24.00;54.40;;;;;;5019823;28;20038;-61
2023/09/05 08:42:31;;;;;;;2.08;1.13;;;24.00;54.50;;;;;;5018959;28;20037;-60
2023/09/05 08:44:58;;;;;;;1.70;1.20;;;24.00;54.40;;;;;;5020314;28;20480;-62
2023/09/05 08:47:26;;;;;;;1.50;1.10;;;24.00;54.50;;;;;;5021576;28;20029;-61
2023/09/05 08:49:53;;;;;;;2.20;1.38;;;24.00;54.50;;;;;;5017464;28;20039;-60
2023/09/05 08:52:20;;;;;;;2.38;1.35;;;24.00;54.50;;;;;;5033114;28;20480;-61
2023/09/05 08:54:50;;;;;;;1.55;1.20;;;24.00;54.40;;;;;;5020133;28;20034;-61
2023/09/05 08:57:17;;;;;;;1.45;1.10;;;24.00;54.40;;;;;;5019352;28;20112;-62
2023/09/05 08:59:43;;;;;;;1.33;1.10;;;24.00;54.50;;;;;;5020628;28;20025;-61
2023/09/05 09:02:17;;;;;;;1.65;1.20;;;24.00;54.50;;;;;;5019047;28;20113;-62
2023/09/05 09:04:53;;;;;;;1.75;1.10;;;24.00;54.50;;;;;;5022530;28;20484;-63
2023/09/05 09:07:24;;;;;;;1.70;1.20;;;24.00;54.50;;;;;;5017867;28;20332;-63
2023/09/05 09:09:50;;;;;;;1.38;1.20;;;24.00;54.50;;;;;;5019401;28;20244;-62
2023/09/05 09:12:15;;;;;;;1.55;1.17;;;24.00;54.50;;;;;;5020883;28;20215;-62
2023/09/05 09:14:43;;;;;;;1.90;1.30;;;24.00;54.50;;;;;;5019705;28;20025;-61
2023/09/05 09:17:09;;;;;;;1.75;1.20;;;24.00;54.40;;;;;;5022116;28;20041;-62
2023/09/05 09:19:37;;;;;;;2.03;1.38;;;24.00;54.50;;;;;;5018538;28;20308;-61
2023/09/05 09:22:05;;;;;;;1.80;1.33;;;24.00;54.50;;;;;;5019058;28;20105;-62
2023/09/05 09:24:40;;;;;;;2.13;1.45;;;24.00;54.50;;;;;;5021096;28;20025;-64
2023/09/05 09:27:07;;;;;;;1.70;1.30;;;24.00;54.50;;;;;;5018074;28;20053;-62
2023/09/05 09:29:33;;;;;;;2.00;1.40;;;24.00;54.50;;;;;;5021258;28;20036;-61
2023/09/05 09:32:04;;;;;;;1.85;1.30;;;24.00;54.50;;;;;;5015754;28;20385;-62
2023/09/05 09:34:31;;;;;;;1.67;1.10;;;24.00;54.50;;;;;;5018886;28;20473;-62
2023/09/05 09:36:58;;;;;;;1.85;1.30;;;24.00;54.60;;;;;;5018889;28;20017;-63
2023/09/05 09:39:24;;;;;;;1.55;1.20;;;24.00;54.50;;;;;;5020439;28;20044;-61
2023/09/05 09:41:49;;;;;;;1.42;1.10;;;24.00;54.50;;;;;;5019408;28;20030;-63
2023/09/05 09:44:28;;;;;;;1.77;1.10;;;24.00;54.60;;;;;;5020323;28;20742;-62
2023/09/05 09:46:55;;;;;;;2.00;1.30;;;24.00;54.50;;;;;;5017714;28;20442;-61
2023/09/05 09:49:24;;;;;;;2.03;1.30;;;24.00;54.60;;;;;;5019163;28;20343;-61
2023/09/05 09:51:55;;;;;;;1.73;1.23;;;24.00;54.60;;;;;;5021522;28;20058;-61
2023/09/05 09:54:36;;;;;;;1.60;1.20;;;24.00;54.60;;;;;;5021573;28;20064;-61
2023/09/05 09:57:06;;;;;;;1.88;1.40;;;24.00;54.60;;;;;;5022064;28;20037;-61
2023/09/05 09:59:35;;;;;;;1.83;1.30;;;24.00;54.60;;;;;;5021934;28;20053;-61
2023/09/05 10:02:07;;;;;;;1.67;1.30;;;24.00;54.60;;;;;;5023872;28;20030;-60
2023/09/05 10:04:34;;;;;;;2.75;1.55;;;24.00;54.60;;;;;;5023453;28;20033;-62
2023/09/05 10:07:01;;;;;;;1.90;1.30;;;24.00;54.60;;;;;;5022054;28;20025;-61
2023/09/05 10:09:30;;;;;;;1.95;1.40;;;24.00;54.60;;;;;;5021689;28;20030;-63
2023/09/05 10:12:00;;;;;;;1.83;1.20;;;24.00;54.60;;;;;;5020847;28;20028;-61
2023/09/05 10:14:27;;;;;;;1.27;1.10;;;24.00;54.60;;;;;;5022665;28;20040;-61
2023/09/05 10:16:54;;;;;;;1.73;1.23;;;24.00;54.60;;;;;;5022084;28;20084;-61
2023/09/05 10:19:21;;;;;;;2.00;1.45;;;24.00;54.60;;;;;;5023186;28;20037;-62
2023/09/05 10:21:49;;;;;;;1.27;1.02;;;24.00;54.60;;;;;;5022495;28;20496;-61
2023/09/05 10:24:15;;;;;;;1.95;1.30;;;23.90;54.50;;;;;;5023392;28;20381;-60
2023/09/05 10:26:41;;;;;;;2.17;1.40;;;24.00;54.60;;;;;;5022265;28;20018;-67
2023/09/05 10:29:48;;;;;;;1.88;1.30;;;24.00;54.60;;;;;;5023361;28;20025;-67
2023/09/05 10:32:18;;;;;;;1.52;1.10;;;24.00;54.60;;;;;;5020374;28;20386;-68
2023/09/05 10:34:58;;;;;;;1.65;1.13;;;24.00;54.60;;;;;;5022276;28;20026;-68
2023/09/05 10:37:38;;;;;;;2.25;1.42;;;24.00;54.60;;;;;;5023153;28;20029;-67
2023/09/05 10:40:09;;;;;;;2.08;1.25;;;23.90;54.50;;;;;;5022433;28;20808;-67
2023/09/05 10:42:41;;;;;;;1.85;1.15;;;23.90;54.50;;;;;;5023183;28;20025;-68
2023/09/05 10:45:22;;;;;;;1.40;1.17;;;24.00;54.60;;;;;;5020248;28;20088;-68
2023/09/05 10:47:49;;;;;;;1.90;1.30;;;23.90;54.50;;;;;;5023927;28;20030;-68
2023/09/05 10:50:22;;;;;;;1.58;1.20;;;23.90;54.50;;;;;;5020978;28;20475;-68
2023/09/05 10:53:11;;;;;;;1.67;1.20;;;23.90;55.00;;;;;;5020983;28;20042;-67
2023/09/05 10:55:44;;;;;;;1.73;1.20;;;24.00;54.60;;;;;;5022266;28;20112;-68
2023/09/05 10:58:51;;;;;;;1.73;1.25;;;23.90;54.50;;;;;;5021788;28;20022;-68
2023/09/05 11:01:32;;;;;;;2.30;1.33;;;24.00;54.60;;;;;;5019516;28;20030;-68
2023/09/05 11:04:07;;;;;;;1.30;1.10;;;23.90;54.50;;;;;;5020511;28;20044;-68
2023/09/05 11:06:34;;;;;;;1.65;1.13;;;23.90;54.60;;;;;;5021521;28;20157;-68
2023/09/05 11:09:02;;;;;;;1.70;1.25;;;23.90;54.50;;;;;;5020863;28;20457;-68
2023/09/05 11:11:28;;;;;;;2.00;1.27;;;23.90;54.50;;;;;;5021330;28;20026;-68
2023/09/05 11:13:54;;;;;;;1.92;1.20;;;23.90;54.50;;;;;;5020154;28;20020;-68
2023/09/05 11:16:20;;;;;;;1.70;1.20;;;24.00;54.60;;;;;;5019398;28;20029;-68
2023/09/05 11:18:55;;;;;;;1.45;1.10;;;23.90;54.50;;;;;;5023276;28;20053;-68
2023/09/05 11:21:23;;;;;;;1.50;1.20;;;23.90;54.50;;;;;;5021041;28;20084;-68
2023/09/05 11:23:55;;;;;;;1.70;1.20;;;24.00;55.10;;;;;;5022022;28;20489;-67
2023/09/05 11:26:21;;;;;;;2.38;1.45;;;23.90;54.50;;;;;;5019824;28;20030;-67
2023/09/05 11:28:51;;;;;;;1.42;1.00;;;24.00;54.60;;;;;;5020053;28;20030;-68
2023/09/05 11:31:22;;;;;;;1.80;1.20;;;23.90;54.60;;;;;;5021695;28;20115;-67
2023/09/05 11:33:48;;;;;;;2.17;1.40;;;24.00;54.60;;;;;;5019508;28;20358;-67
2023/09/05 11:36:14;;;;;;;2.17;1.40;;;24.00;54.60;;;;;;5019803;28;20192;-65
2023/09/05 11:38:49;;;;;;;2.75;1.30;;;24.00;54.60;;;;;;5026181;28;20057;-65
2023/09/05 11:41:16;;;;;;;2.10;1.50;;;23.90;54.90;;;;;;5022019;28;20189;-65
2023/09/05 11:43:54;;;;;;;6.15;1.40;;;24.00;54.80;;;;;;5021567;28;20040;-65
2023/09/05 11:46:21;;;;;;;2.72;1.50;;;24.00;54.80;;;;;;5022502;28;20057;-65
2023/09/05 11:48:50;;;;;;;1.88;1.38;;;24.10;54.70;;;;;;5020825;28;20018;-65
2023/09/05 11:51:17;;;;;;;2.20;1.70;;;24.10;54.70;;;;;;5018400;28;20030;-66
2023/09/05 11:53:43;;;;;;;3.13;1.38;;;24.10;54.70;;;;;;5019537;28;20576;-65
2023/09/05 11:56:10;;;;;;;1.65;1.10;;;24.10;54.80;;;;;;5024582;28;20037;-65
2023/09/05 11:58:36;;;;;;;1.42;1.13;;;24.10;54.80;;;;;;5022424;28;20057;-65
2023/09/05 12:01:02;;;;;;;1.70;1.10;;;24.10;54.70;;;;;;5019995;28;20068;-65
2023/09/05 12:03:38;;;;;;;1.45;1.10;;;24.10;54.60;;;;;;5020270;28;20460;-66
2023/09/05 12:06:04;;;;;;;2.22;1.20;;;24.10;54.60;;;;;;5020247;28;20357;-65
2023/09/05 12:08:34;;;;;;;1.73;1.25;;;24.10;54.50;;;;;;5021596;28;20022;-66
2023/09/05 12:10:59;;;;;;;1.23;1.00;;;24.20;54.50;;;;;;5019892;28;20053;-65
2023/09/05 12:13:55;;;;;;;1.33;1.10;;;24.20;54.50;;;;;;5020723;28;20140;-66
2023/09/05 12:16:21;;;;;;;1.42;1.05;;;24.20;54.40;;;;;;5018642;28;20108;-66
2023/09/05 12:18:48;;;;;;;1.60;1.20;;;24.20;54.40;;;;;;5018305;28;20436;-66
2023/09/05 12:21:14;;;;;;;1.55;1.10;;;24.20;54.40;;;;;;5021182;28;20061;-65
2023/09/05 12:23:39;;;;;;;1.85;1.10;;;24.20;54.30;;;;;;5020010;28;20030;-66
2023/09/05 12:26:06;;;;;;;1.90;1.40;;;24.20;54.30;;;;;;5021929;28;20034;-68
2023/09/05 12:28:32;;;;;;;1.50;1.00;;;24.20;54.30;;;;;;5019689;28;20159;-66
2023/09/05 12:31:14;;;;;;;1.50;1.00;;;24.20;54.20;;;;;;5014429;28;20393;-66
2023/09/05 12:33:40;;;;;;;1.90;1.38;;;24.20;54.10;;;;;;5020392;28;20052;-65
2023/09/05 12:36:06;;;;;;;1.88;1.27;;;24.20;54.10;;;;;;5020497;28;20449;-65
2023/09/05 12:38:32;;;;;;;1.83;1.17;;;24.20;54.10;;;;;;5020538;28;20088;-66
2023/09/05 12:40:57;;;;;;;1.95;1.25;;;24.20;54.00;;;;;;5023699;28;20135;-67
2023/09/05 12:43:26;;;;;;;1.77;1.10;;;24.20;54.00;;;;;;5023956;28;20025;-66
2023/09/05 12:45:52;;;;;;;1.52;1.10;;;24.20;54.00;;;;;;5019352;28;20026;-68
2023/09/05 12:48:17;;;;;;;1.50;1.02;;;24.30;54.10;;;;;;5019458;28;20607;-67
2023/09/05 12:50:45;;;;;;;1.60;1.20;;;24.20;54.00;;;;;;5019375;28;20021;-67